createdAt,value
2022-11-13T00:00:22.928Z,9
2022-11-13T00:01:22.992Z,10
2022-11-13T00:02:23.002Z,9
2022-11-13T00:03:22.993Z,11
2022-11-13T00:04:22.927Z,10
2022-11-13T00:05:22.928Z,9
2022-11-13T00:06:23.036Z,10
2022-11-13T00:07:22.971Z,10
2022-11-13T00:08:22.937Z,12
2022-11-13T00:09:22.919Z,9
2022-11-13T00:10:23.085Z,10
2022-11-13T00:11:22.950Z,11
2022-11-13T00:12:22.919Z,8
2022-11-13T00:13:26.137Z,9
2022-11-13T00:14:22.984Z,10
2022-11-13T00:15:22.981Z,9
2022-11-13T00:16:22.940Z,9
2022-11-13T00:17:22.946Z,9
2022-11-13T00:18:22.984Z,10
2022-11-13T00:19:22.931Z,9
2022-11-13T00:20:22.922Z,9
2022-11-13T00:21:22.941Z,10
2022-11-13T00:22:22.961Z,9
2022-11-13T00:23:22.929Z,10
2022-11-13T00:24:22.928Z,10
2022-11-13T00:25:22.977Z,10
2022-11-13T00:26:22.999Z,11
2022-11-13T00:27:22.932Z,9
2022-11-13T00:28:22.963Z,8
2022-11-13T00:29:22.933Z,9
2022-11-13T00:30:22.930Z,12
2022-11-13T00:31:22.945Z,9
2022-11-13T00:32:23.037Z,10
2022-11-13T00:33:45.315Z,10
2022-11-13T00:34:47.667Z,12
2022-11-13T00:35:22.945Z,11
2022-11-13T00:36:26.118Z,10
2022-11-13T00:37:22.934Z,10
2022-11-13T00:38:22.933Z,9
2022-11-13T00:39:22.941Z,10
2022-11-13T00:40:22.990Z,9
2022-11-13T00:41:23.055Z,10
2022-11-13T00:42:22.961Z,10
2022-11-13T00:43:23.018Z,9
2022-11-13T00:44:23.099Z,10
2022-11-13T00:45:22.947Z,11
2022-11-13T00:46:22.959Z,9
2022-11-13T00:47:22.954Z,9
2022-11-13T00:48:22.991Z,10
2022-11-13T00:49:22.926Z,10
2022-11-13T00:50:22.930Z,11
2022-11-13T00:51:22.947Z,11
2022-11-13T00:52:22.971Z,11
2022-11-13T00:53:22.917Z,10
2022-11-13T00:54:22.928Z,11
2022-11-13T00:55:22.972Z,11
2022-11-13T00:56:22.995Z,12
2022-11-13T00:57:22.929Z,9
2022-11-13T00:58:22.939Z,9
2022-11-13T00:59:22.935Z,10
2022-11-13T01:00:22.932Z,11
2022-11-13T01:01:22.966Z,10
2022-11-13T01:02:22.958Z,9
2022-11-13T01:03:22.970Z,9
2022-11-13T01:04:22.970Z,10
2022-11-13T01:05:22.934Z,9
2022-11-13T01:06:22.988Z,10
2022-11-13T01:07:22.921Z,9
2022-11-13T01:08:22.941Z,11
2022-11-13T01:09:22.931Z,10
2022-11-13T01:10:23.035Z,11
2022-11-13T01:11:23.014Z,9
2022-11-13T01:12:23.088Z,9
2022-11-13T01:13:22.946Z,8
2022-11-13T01:14:22.924Z,9
2022-11-13T01:15:22.932Z,9
2022-11-13T01:16:22.962Z,8
2022-11-13T01:17:22.998Z,9
2022-11-13T01:18:22.937Z,9
2022-11-13T01:19:22.974Z,9
2022-11-13T01:20:22.978Z,10
2022-11-13T01:21:22.948Z,10
2022-11-13T01:22:22.922Z,11
2022-11-13T01:23:22.925Z,10
2022-11-13T01:24:22.929Z,8
2022-11-13T01:25:22.945Z,8
2022-11-13T01:26:22.952Z,9
2022-11-13T01:27:22.985Z,9
2022-11-13T01:28:22.968Z,11
2022-11-13T01:29:22.923Z,10
2022-11-13T01:30:22.958Z,8
2022-11-13T01:31:22.953Z,10
2022-11-13T01:32:22.953Z,8
2022-11-13T01:33:22.934Z,9
2022-11-13T01:34:22.925Z,10
2022-11-13T01:35:22.969Z,7
2022-11-13T01:36:22.986Z,8
2022-11-13T01:37:22.925Z,10
2022-11-13T01:38:22.937Z,8
2022-11-13T01:39:22.940Z,8
2022-11-13T01:40:22.941Z,8
2022-11-13T01:41:23.633Z,9
2022-11-13T01:42:22.993Z,10
2022-11-13T01:43:23.154Z,9
2022-11-13T01:44:22.945Z,9
2022-11-13T01:45:22.944Z,9
2022-11-13T01:46:22.952Z,8
2022-11-13T01:47:22.966Z,9
2022-11-13T01:48:22.935Z,9
2022-11-13T01:49:22.927Z,9
2022-11-13T01:50:22.992Z,9
2022-11-13T01:51:23.025Z,9
2022-11-13T01:52:22.937Z,10
2022-11-13T01:53:22.926Z,9
2022-11-13T01:54:22.931Z,8
2022-11-13T01:55:22.939Z,8
2022-11-13T01:56:22.945Z,9
2022-11-13T01:57:22.925Z,10
2022-11-13T01:58:22.992Z,9
2022-11-13T01:59:23.039Z,9
2022-11-13T02:00:23.090Z,10
2022-11-13T02:01:23.051Z,8
2022-11-13T02:02:22.961Z,8
2022-11-13T02:03:22.933Z,10
2022-11-13T02:04:22.918Z,9
2022-11-13T02:05:22.923Z,8
2022-11-13T02:06:23.007Z,10
2022-11-13T02:07:23.054Z,8
2022-11-13T02:08:22.934Z,8
2022-11-13T02:09:23.031Z,8
2022-11-13T02:10:22.938Z,7
2022-11-13T02:11:22.952Z,7
2022-11-13T02:12:22.990Z,8
2022-11-13T02:13:22.935Z,9
2022-11-13T02:14:23.074Z,7
2022-11-13T02:15:22.966Z,7
2022-11-13T02:16:22.950Z,8
2022-11-13T02:17:22.914Z,8
2022-11-13T02:18:22.913Z,7
2022-11-13T02:19:22.914Z,7
2022-11-13T02:20:22.944Z,7
2022-11-13T02:21:22.939Z,8
2022-11-13T02:22:23.078Z,7
2022-11-13T02:23:23.016Z,10
2022-11-13T02:24:22.923Z,7
2022-11-13T02:25:22.919Z,8
2022-11-13T02:26:22.951Z,8
2022-11-13T02:27:22.934Z,7
2022-11-13T02:28:22.918Z,8
2022-11-13T02:29:22.928Z,8
2022-11-13T02:30:26.908Z,8
2022-11-13T02:31:22.950Z,8
2022-11-13T02:32:22.956Z,8
2022-11-13T02:33:22.925Z,7
2022-11-13T02:34:22.927Z,7
2022-11-13T02:35:22.924Z,9
2022-11-13T02:36:22.974Z,10
2022-11-13T02:37:22.985Z,6
2022-11-13T02:38:23.003Z,7
2022-11-13T02:39:22.941Z,7
2022-11-13T02:40:22.926Z,8
2022-11-13T02:41:22.948Z,7
2022-11-13T02:42:22.957Z,8
2022-11-13T02:43:22.925Z,8
2022-11-13T02:44:22.921Z,8
2022-11-13T02:45:23.100Z,9
2022-11-13T02:46:23.006Z,8
2022-11-13T02:47:22.977Z,7
2022-11-13T02:48:23.042Z,7
2022-11-13T02:49:22.950Z,8
2022-11-13T02:50:22.954Z,8
2022-11-13T02:51:23.023Z,9
2022-11-13T02:52:23.313Z,8
2022-11-13T02:53:23.074Z,6
2022-11-13T02:54:23.182Z,8
2022-11-13T02:55:23.234Z,8
2022-11-13T02:56:22.976Z,8
2022-11-13T02:57:22.928Z,8
2022-11-13T02:58:22.935Z,7
2022-11-13T02:59:22.953Z,8
2022-11-13T03:00:22.978Z,7
2022-11-13T03:01:23.092Z,7
2022-11-13T03:02:23.010Z,7
2022-11-13T03:03:48.244Z,7
2022-11-13T03:04:22.992Z,6
2022-11-13T03:05:22.972Z,8
2022-11-13T03:06:22.985Z,7
2022-11-13T03:07:23.091Z,9
2022-11-13T03:08:22.953Z,8
2022-11-13T03:09:23.027Z,7
2022-11-13T03:10:22.990Z,7
2022-11-13T03:11:22.978Z,8
2022-11-13T03:12:22.976Z,6
2022-11-13T03:13:22.925Z,8
2022-11-13T03:14:22.958Z,6
2022-11-13T03:15:23.026Z,7
2022-11-13T03:16:23.074Z,7
2022-11-13T03:17:23.040Z,8
2022-11-13T03:18:23.014Z,7
2022-11-13T03:19:22.939Z,9
2022-11-13T03:20:22.961Z,7
2022-11-13T03:21:22.961Z,7
2022-11-13T03:22:22.942Z,6
2022-11-13T03:23:22.918Z,7
2022-11-13T03:24:22.929Z,6
2022-11-13T03:25:22.988Z,6
2022-11-13T03:26:22.949Z,8
2022-11-13T03:27:22.923Z,8
2022-11-13T03:28:22.944Z,8
2022-11-13T03:29:22.938Z,6
2022-11-13T03:30:22.946Z,7
2022-11-13T03:31:22.950Z,7
2022-11-13T03:32:22.931Z,6
2022-11-13T03:33:22.970Z,7
2022-11-13T03:34:22.924Z,6
2022-11-13T03:35:22.937Z,8
2022-11-13T03:36:22.975Z,7
2022-11-13T03:37:22.934Z,8
2022-11-13T03:38:22.929Z,7
2022-11-13T03:39:22.935Z,8
2022-11-13T03:40:22.932Z,7
2022-11-13T03:41:23.026Z,7
2022-11-13T03:42:22.947Z,7
2022-11-13T03:43:22.927Z,8
2022-11-13T03:44:22.934Z,8
2022-11-13T03:45:22.957Z,7
2022-11-13T03:46:22.947Z,7
2022-11-13T03:47:23.073Z,8
2022-11-13T03:48:23.002Z,7
2022-11-13T03:49:22.969Z,8
2022-11-13T03:50:22.923Z,8
2022-11-13T03:51:22.960Z,8
2022-11-13T03:52:22.940Z,7
2022-11-13T03:53:22.917Z,8
2022-11-13T03:54:22.915Z,8
2022-11-13T03:55:22.936Z,9
2022-11-13T03:56:23.027Z,7
2022-11-13T03:57:22.963Z,7
2022-11-13T03:58:22.937Z,7
2022-11-13T03:59:22.922Z,8
2022-11-13T04:00:22.940Z,7
2022-11-13T04:01:22.991Z,7
2022-11-13T04:02:22.937Z,7
2022-11-13T04:03:22.927Z,9
2022-11-13T04:04:22.986Z,7
2022-11-13T04:05:23.168Z,7
2022-11-13T04:06:22.956Z,7
2022-11-13T04:07:22.996Z,7
2022-11-13T04:08:22.935Z,9
2022-11-13T04:09:22.942Z,7
2022-11-13T04:10:23.075Z,7
2022-11-13T04:11:22.960Z,9
2022-11-13T04:12:22.997Z,7
2022-11-13T04:13:22.966Z,10
2022-11-13T04:14:22.941Z,6
2022-11-13T04:15:22.939Z,7
2022-11-13T04:16:22.953Z,7
2022-11-13T04:17:22.938Z,7
2022-11-13T04:18:23.036Z,7
2022-11-13T04:19:22.944Z,8
2022-11-13T04:20:22.977Z,8
2022-11-13T04:21:23.001Z,6
2022-11-13T04:22:22.922Z,6
2022-11-13T04:23:22.930Z,6
2022-11-13T04:24:22.921Z,6
2022-11-13T04:25:22.937Z,9
2022-11-13T04:26:22.929Z,8
2022-11-13T04:27:22.935Z,9
2022-11-13T04:28:22.973Z,7
2022-11-13T04:29:22.939Z,7
2022-11-13T04:30:22.930Z,7
2022-11-13T04:31:22.935Z,7
2022-11-13T04:32:22.998Z,6
2022-11-13T04:33:22.939Z,6
2022-11-13T04:34:22.934Z,7
2022-11-13T04:35:22.986Z,6
2022-11-13T04:36:23.003Z,7
2022-11-13T04:37:22.924Z,6
2022-11-13T04:38:22.922Z,6
2022-11-13T04:39:22.920Z,6
2022-11-13T04:40:22.957Z,7
2022-11-13T04:41:22.947Z,6
2022-11-13T04:42:22.940Z,7
2022-11-13T04:43:23.036Z,7
2022-11-13T04:44:22.984Z,5
2022-11-13T04:45:22.951Z,6
2022-11-13T04:46:22.952Z,8
2022-11-13T04:47:22.938Z,7
2022-11-13T04:48:22.939Z,6
2022-11-13T04:49:23.033Z,8
2022-11-13T04:50:22.936Z,7
2022-11-13T04:51:22.997Z,5
2022-11-13T04:52:22.962Z,7
2022-11-13T04:53:22.945Z,7
2022-11-13T04:54:28.384Z,7
2022-11-13T04:55:22.936Z,6
2022-11-13T04:56:22.954Z,7
2022-11-13T04:57:23.051Z,6
2022-11-13T04:58:22.937Z,6
2022-11-13T04:59:23.007Z,7
2022-11-13T05:00:22.963Z,7
2022-11-13T05:01:22.987Z,6
2022-11-13T05:02:22.918Z,7
2022-11-13T05:03:22.931Z,6
2022-11-13T05:04:22.924Z,7
2022-11-13T05:05:22.978Z,6
2022-11-13T05:06:22.949Z,6
2022-11-13T05:07:23.038Z,6
2022-11-13T05:08:22.967Z,5
2022-11-13T05:09:22.929Z,7
2022-11-13T05:10:22.948Z,7
2022-11-13T05:11:22.950Z,7
2022-11-13T05:12:22.934Z,7
2022-11-13T05:13:23.016Z,6
2022-11-13T05:14:22.951Z,6
2022-11-13T05:15:22.977Z,5
2022-11-13T05:16:22.991Z,6
2022-11-13T05:17:22.935Z,6
2022-11-13T05:18:22.939Z,6
2022-11-13T05:19:22.928Z,6
2022-11-13T05:20:22.968Z,7
2022-11-13T05:21:22.947Z,6
2022-11-13T05:22:23.008Z,6
2022-11-13T05:23:22.970Z,5
2022-11-13T05:24:22.922Z,6
2022-11-13T05:25:22.929Z,5
2022-11-13T05:26:22.946Z,5
2022-11-13T05:27:22.989Z,6
2022-11-13T05:28:22.928Z,7
2022-11-13T05:29:22.937Z,5
2022-11-13T05:30:22.919Z,7
2022-11-13T05:31:23.025Z,7
2022-11-13T05:32:22.929Z,6
2022-11-13T05:33:22.935Z,5
2022-11-13T05:34:22.925Z,6
2022-11-13T05:35:22.924Z,6
2022-11-13T05:36:22.951Z,7
2022-11-13T05:37:22.941Z,7
2022-11-13T05:38:23.106Z,7
2022-11-13T05:39:22.974Z,7
2022-11-13T05:40:22.929Z,7
2022-11-13T05:41:22.963Z,6
2022-11-13T05:42:22.929Z,6
2022-11-13T05:43:22.935Z,5
2022-11-13T05:44:22.940Z,7
2022-11-13T05:45:22.968Z,6
2022-11-13T05:46:23.022Z,7
2022-11-13T05:47:22.979Z,7
2022-11-13T05:48:22.937Z,7
2022-11-13T05:49:22.959Z,7
2022-11-13T05:50:22.927Z,6
2022-11-13T05:51:23.067Z,6
2022-11-13T05:52:22.928Z,5
2022-11-13T05:53:22.921Z,6
2022-11-13T05:54:22.987Z,6
2022-11-13T05:55:23.589Z,7
2022-11-13T05:56:22.942Z,7
2022-11-13T05:57:22.929Z,5
2022-11-13T05:58:22.930Z,6
2022-11-13T05:59:23.074Z,6
2022-11-13T06:00:22.962Z,6
2022-11-13T06:01:22.960Z,7
2022-11-13T06:02:23.152Z,8
2022-11-13T06:03:23.062Z,5
2022-11-13T06:04:23.141Z,5
2022-11-13T06:05:23.217Z,7
2022-11-13T06:06:23.080Z,6
2022-11-13T06:07:23.234Z,5
2022-11-13T06:08:23.205Z,6
2022-11-13T06:09:23.285Z,6
2022-11-13T06:10:23.327Z,7
2022-11-13T06:11:23.214Z,5
2022-11-13T06:12:22.943Z,7
2022-11-13T06:13:22.946Z,6
2022-11-13T06:14:22.924Z,5
2022-11-13T06:15:22.950Z,5
2022-11-13T06:16:22.949Z,5
2022-11-13T06:17:22.935Z,5
2022-11-13T06:18:26.537Z,6
2022-11-13T06:19:23.013Z,5
2022-11-13T06:20:22.947Z,7
2022-11-13T06:21:22.940Z,5
2022-11-13T06:22:23.056Z,4
2022-11-13T06:23:22.929Z,4
2022-11-13T06:24:22.928Z,5
2022-11-13T06:25:22.926Z,5
2022-11-13T06:26:22.984Z,5
2022-11-13T06:27:22.937Z,5
2022-11-13T06:28:22.940Z,5
2022-11-13T06:29:22.938Z,5
2022-11-13T06:30:22.941Z,4
2022-11-13T06:31:22.956Z,4
2022-11-13T06:32:22.958Z,7
2022-11-13T06:33:23.049Z,7
2022-11-13T06:34:22.963Z,8
2022-11-13T06:35:22.930Z,10
2022-11-13T06:36:22.956Z,10
2022-11-13T06:37:22.934Z,7
2022-11-13T06:38:22.932Z,5
2022-11-13T06:39:38.909Z,5
2022-11-13T06:40:23.022Z,4
2022-11-13T06:41:22.984Z,5
2022-11-13T06:42:22.984Z,5
2022-11-13T06:43:22.939Z,5
2022-11-13T06:44:22.990Z,4
2022-11-13T06:45:22.924Z,5
2022-11-13T06:46:23.200Z,5
2022-11-13T06:47:23.303Z,5
2022-11-13T06:48:22.938Z,5
2022-11-13T06:49:23.325Z,7
2022-11-13T06:50:22.966Z,6
2022-11-13T06:51:22.950Z,4
2022-11-13T06:52:23.040Z,5
2022-11-13T06:53:23.059Z,4
2022-11-13T06:54:22.934Z,4
2022-11-13T06:55:22.989Z,4
2022-11-13T06:56:22.995Z,6
2022-11-13T06:57:22.988Z,4
2022-11-13T06:58:22.970Z,6
2022-11-13T06:59:22.969Z,5
2022-11-13T07:00:23.039Z,5
2022-11-13T07:01:23.055Z,4
2022-11-13T07:02:22.936Z,4
2022-11-13T07:03:22.983Z,4
2022-11-13T07:04:22.939Z,4
2022-11-13T07:05:22.979Z,3
2022-11-13T07:06:22.999Z,3
2022-11-13T07:07:22.962Z,3
2022-11-13T07:08:22.930Z,3
2022-11-13T07:09:22.945Z,4
2022-11-13T07:10:22.933Z,3
2022-11-13T07:11:22.957Z,3
2022-11-13T07:12:22.927Z,3
2022-11-13T07:13:22.996Z,3
2022-11-13T07:14:22.954Z,4
2022-11-13T07:15:22.939Z,3
2022-11-13T07:16:22.961Z,3
2022-11-13T07:17:22.937Z,3
2022-11-13T07:18:24.164Z,2
2022-11-13T07:19:23.015Z,2
2022-11-13T07:20:22.933Z,6
2022-11-13T07:21:23.012Z,2
2022-11-13T07:22:22.960Z,4
2022-11-13T07:23:22.941Z,3
2022-11-13T07:24:23.048Z,3
2022-11-13T07:25:22.933Z,3
2022-11-13T07:26:22.958Z,3
2022-11-13T07:27:22.931Z,3
2022-11-13T07:28:22.946Z,3
2022-11-13T07:29:22.979Z,3
2022-11-13T07:30:22.938Z,3
2022-11-13T07:31:22.932Z,3
2022-11-13T07:32:22.936Z,3
2022-11-13T07:33:22.930Z,4
2022-11-13T07:34:22.930Z,3
2022-11-13T07:35:22.947Z,3
2022-11-13T07:36:22.971Z,3
2022-11-13T07:37:22.967Z,3
2022-11-13T07:38:22.940Z,4
2022-11-13T07:39:22.933Z,4
2022-11-13T07:40:22.933Z,3
2022-11-13T07:41:22.959Z,3
2022-11-13T07:42:22.941Z,3
2022-11-13T07:43:22.940Z,3
2022-11-13T07:44:47.956Z,3
2022-11-13T07:45:22.970Z,4
2022-11-13T07:46:22.974Z,4
2022-11-13T07:47:23.001Z,4
2022-11-13T07:48:22.933Z,3
2022-11-13T07:49:22.931Z,4
2022-11-13T07:50:22.923Z,3
2022-11-13T07:51:22.955Z,5
2022-11-13T07:52:23.002Z,4
2022-11-13T07:53:22.977Z,4
2022-11-13T07:54:22.937Z,4
2022-11-13T07:55:23.041Z,3
2022-11-13T07:56:23.278Z,4
2022-11-13T07:57:23.061Z,4
2022-11-13T07:58:23.015Z,4
2022-11-13T07:59:22.944Z,4
2022-11-13T08:00:22.994Z,5
2022-11-13T08:01:23.052Z,4
2022-11-13T08:02:26.457Z,4
2022-11-13T08:03:22.974Z,4
2022-11-13T08:04:22.943Z,4
2022-11-13T08:05:22.925Z,3
2022-11-13T08:06:22.948Z,3
2022-11-13T08:07:22.994Z,3
2022-11-13T08:08:23.003Z,4
2022-11-13T08:09:22.930Z,2
2022-11-13T08:10:22.953Z,2
2022-11-13T08:11:22.953Z,3
2022-11-13T08:12:22.948Z,3
2022-11-13T08:13:22.935Z,3
2022-11-13T08:14:22.939Z,3
2022-11-13T08:15:22.942Z,2
2022-11-13T08:16:23.000Z,2
2022-11-13T08:17:22.933Z,4
2022-11-13T08:18:22.924Z,3
2022-11-13T08:19:22.945Z,3
2022-11-13T08:20:22.941Z,3
2022-11-13T08:21:22.938Z,3
2022-11-13T08:22:22.925Z,3
2022-11-13T08:23:22.967Z,3
2022-11-13T08:24:22.976Z,3
2022-11-13T08:25:22.944Z,4
2022-11-13T08:26:23.112Z,3
2022-11-13T08:27:22.933Z,4
2022-11-13T08:28:22.933Z,3
2022-11-13T08:29:22.943Z,3
2022-11-13T08:30:22.930Z,3
2022-11-13T08:31:23.082Z,2
2022-11-13T08:32:22.984Z,3
2022-11-13T08:33:22.934Z,3
2022-11-13T08:34:22.929Z,3
2022-11-13T08:35:28.156Z,3
2022-11-13T08:36:22.948Z,4
2022-11-13T08:37:22.965Z,3
2022-11-13T08:38:22.945Z,3
2022-11-13T08:39:22.976Z,2
2022-11-13T08:40:22.983Z,3
2022-11-13T08:41:22.961Z,3
2022-11-13T08:42:22.926Z,2
2022-11-13T08:43:22.931Z,3
2022-11-13T08:44:22.936Z,3
2022-11-13T08:45:22.932Z,2
2022-11-13T08:46:22.961Z,2
2022-11-13T08:47:28.303Z,2
2022-11-13T08:48:22.926Z,3
2022-11-13T08:49:22.991Z,3
2022-11-13T08:50:22.948Z,3
2022-11-13T08:51:23.011Z,3
2022-11-13T08:52:22.924Z,5
2022-11-13T08:53:22.938Z,4
2022-11-13T08:54:22.946Z,2
2022-11-13T08:55:22.988Z,3
2022-11-13T08:56:22.956Z,3
2022-11-13T08:57:23.061Z,3
2022-11-13T08:58:22.937Z,2
2022-11-13T08:59:22.942Z,3
2022-11-13T09:00:22.939Z,2
2022-11-13T09:01:22.960Z,2
2022-11-13T09:02:23.029Z,3
2022-11-13T09:03:23.042Z,3
2022-11-13T09:04:22.932Z,2
2022-11-13T09:05:22.977Z,2
2022-11-13T09:06:22.944Z,2
2022-11-13T09:07:26.942Z,3
2022-11-13T09:08:22.930Z,5
2022-11-13T09:09:22.953Z,3
2022-11-13T09:10:22.981Z,4
2022-11-13T09:11:23.003Z,4
2022-11-13T09:12:22.948Z,4
2022-11-13T09:13:22.989Z,3
2022-11-13T09:14:22.928Z,3
2022-11-13T09:15:24.465Z,3
2022-11-13T09:16:22.945Z,5
2022-11-13T09:17:22.953Z,6
2022-11-13T09:18:22.982Z,6
2022-11-13T09:19:22.986Z,4
2022-11-13T09:20:23.273Z,3
2022-11-13T09:21:22.962Z,4
2022-11-13T09:22:22.930Z,4
2022-11-13T09:23:22.946Z,4
2022-11-13T09:24:22.950Z,4
2022-11-13T09:25:22.937Z,4
2022-11-13T09:26:22.999Z,4
2022-11-13T09:27:22.970Z,4
2022-11-13T09:28:23.080Z,4
2022-11-13T09:29:22.937Z,4
2022-11-13T09:30:22.961Z,4
2022-11-13T09:31:22.952Z,4
2022-11-13T09:32:22.932Z,4
2022-11-13T09:33:22.950Z,4
2022-11-13T09:34:22.988Z,3
2022-11-13T09:35:22.936Z,4
2022-11-13T09:36:22.957Z,4
2022-11-13T09:37:22.939Z,4
2022-11-13T09:38:22.962Z,4
2022-11-13T09:39:22.935Z,3
2022-11-13T09:40:22.943Z,3
2022-11-13T09:41:22.952Z,3
2022-11-13T09:42:22.992Z,4
2022-11-13T09:43:22.938Z,5
2022-11-13T09:44:22.943Z,4
2022-11-13T09:45:22.947Z,4
2022-11-13T09:46:22.953Z,4
2022-11-13T09:47:22.936Z,5
2022-11-13T09:48:22.955Z,4
2022-11-13T09:49:23.013Z,4
2022-11-13T09:50:22.981Z,4
2022-11-13T09:51:23.073Z,3
2022-11-13T09:52:22.932Z,3
2022-11-13T09:53:22.940Z,6
2022-11-13T09:54:22.937Z,4
2022-11-13T09:55:22.933Z,4
2022-11-13T09:56:22.966Z,4
2022-11-13T09:57:26.068Z,3
2022-11-13T09:58:22.995Z,5
2022-11-13T09:59:23.166Z,4
2022-11-13T10:00:23.048Z,3
2022-11-13T10:01:23.039Z,3
2022-11-13T10:02:22.972Z,3
2022-11-13T10:03:46.344Z,3
2022-11-13T10:04:22.941Z,3
2022-11-13T10:05:23.008Z,5
2022-11-13T10:06:23.018Z,3
2022-11-13T10:07:23.051Z,4
2022-11-13T10:08:23.150Z,3
2022-11-13T10:09:23.177Z,2
2022-11-13T10:10:23.244Z,4
2022-11-13T10:11:23.228Z,3
2022-11-13T10:12:23.132Z,3
2022-11-13T10:13:23.483Z,3
2022-11-13T10:14:22.978Z,3
2022-11-13T10:15:22.947Z,3
2022-11-13T10:16:22.949Z,3
2022-11-13T10:17:22.947Z,3
2022-11-13T10:18:22.930Z,3
2022-11-13T10:19:22.956Z,3
2022-11-13T10:20:22.937Z,3
2022-11-13T10:21:23.014Z,3
2022-11-13T10:22:34.962Z,3
2022-11-13T10:23:22.943Z,3
2022-11-13T10:24:22.967Z,2
2022-11-13T10:25:22.936Z,3
2022-11-13T10:26:22.970Z,3
2022-11-13T10:27:22.963Z,3
2022-11-13T10:28:48.806Z,3
2022-11-13T10:29:23.005Z,4
2022-11-13T10:30:23.116Z,3
2022-11-13T10:31:22.959Z,2
2022-11-13T10:32:22.955Z,2
2022-11-13T10:33:22.936Z,2
2022-11-13T10:34:22.939Z,3
2022-11-13T10:35:22.948Z,3
2022-11-13T10:36:23.048Z,2
2022-11-13T10:37:23.002Z,3
2022-11-13T10:38:22.950Z,3
2022-11-13T10:39:22.959Z,4
2022-11-13T10:40:22.946Z,3
2022-11-13T10:41:22.962Z,3
2022-11-13T10:42:22.930Z,3
2022-11-13T10:43:22.949Z,2
2022-11-13T10:44:22.951Z,3
2022-11-13T10:45:23.054Z,3
2022-11-13T10:46:23.083Z,3
2022-11-13T10:47:49.147Z,3
2022-11-13T10:48:23.043Z,4
2022-11-13T10:49:23.104Z,4
2022-11-13T10:50:23.108Z,3
2022-11-13T10:51:22.967Z,4
2022-11-13T10:52:22.989Z,5
2022-11-13T10:53:22.976Z,6
2022-11-13T10:54:22.938Z,4
2022-11-13T10:55:22.956Z,5
2022-11-13T10:56:22.971Z,5
2022-11-13T10:57:22.946Z,4
2022-11-13T10:58:22.942Z,4
2022-11-13T10:59:22.962Z,4
2022-11-13T11:00:22.990Z,4
2022-11-13T11:01:23.250Z,2
2022-11-13T11:02:22.967Z,3
2022-11-13T11:03:22.971Z,3
2022-11-13T11:04:22.953Z,4
2022-11-13T11:05:22.952Z,3
2022-11-13T11:06:26.041Z,3
2022-11-13T11:07:23.040Z,3
2022-11-13T11:08:23.009Z,3
2022-11-13T11:09:22.984Z,3
2022-11-13T11:10:22.954Z,3
2022-11-13T11:11:22.968Z,3
2022-11-13T11:12:28.967Z,3
2022-11-13T11:13:22.959Z,4
2022-11-13T11:14:23.024Z,4
2022-11-13T11:15:22.972Z,3
2022-11-13T11:16:23.027Z,2
2022-11-13T11:17:22.984Z,2
2022-11-13T11:18:22.944Z,2
2022-11-13T11:19:22.958Z,2
2022-11-13T11:20:22.961Z,3
2022-11-13T11:21:22.982Z,2
2022-11-13T11:22:22.976Z,3
2022-11-13T11:23:22.942Z,3
2022-11-13T11:24:23.012Z,3
2022-11-13T11:25:23.001Z,4
2022-11-13T11:26:22.972Z,3
2022-11-13T11:27:22.956Z,3
2022-11-13T11:28:22.963Z,4
2022-11-13T11:29:22.946Z,3
2022-11-13T11:30:22.934Z,4
2022-11-13T11:31:22.966Z,3
2022-11-13T11:32:23.103Z,2
2022-11-13T11:33:22.949Z,2
2022-11-13T11:34:22.944Z,2
2022-11-13T11:35:22.943Z,2
2022-11-13T11:36:23.013Z,3
2022-11-13T11:37:22.962Z,3
2022-11-13T11:38:22.945Z,2
2022-11-13T11:39:22.961Z,2
2022-11-13T11:40:22.991Z,2
2022-11-13T11:41:22.981Z,3
2022-11-13T11:42:22.966Z,2
2022-11-13T11:43:22.955Z,2
2022-11-13T11:44:22.942Z,3
2022-11-13T11:45:22.963Z,2
2022-11-13T11:46:22.954Z,2
2022-11-13T11:47:22.996Z,2
2022-11-13T11:48:22.995Z,2
2022-11-13T11:49:22.960Z,3
2022-11-13T11:50:22.948Z,3
2022-11-13T11:51:22.983Z,3
2022-11-13T11:52:22.956Z,3
2022-11-13T11:53:22.935Z,3
2022-11-13T11:54:22.949Z,2
2022-11-13T11:55:23.003Z,2
2022-11-13T11:56:23.012Z,2
2022-11-13T11:57:22.954Z,3
2022-11-13T11:58:22.978Z,2
2022-11-13T11:59:22.954Z,3
2022-11-13T12:00:22.974Z,2
2022-11-13T12:01:22.977Z,2
2022-11-13T12:02:22.952Z,3
2022-11-13T12:03:23.125Z,2
2022-11-13T12:04:23.087Z,5
2022-11-13T12:05:23.059Z,2
2022-11-13T12:06:22.971Z,2
2022-11-13T12:07:23.138Z,4
2022-11-13T12:08:23.174Z,2
2022-11-13T12:09:23.314Z,3
2022-11-13T12:10:23.277Z,3
2022-11-13T12:11:23.171Z,4
2022-11-13T12:12:23.316Z,3
2022-11-13T12:13:23.302Z,3
2022-11-13T12:14:23.129Z,2
2022-11-13T12:15:22.970Z,3
2022-11-13T12:16:25.128Z,4
2022-11-13T12:17:22.964Z,3
2022-11-13T12:18:22.957Z,2
2022-11-13T12:19:23.012Z,3
2022-11-13T12:20:23.011Z,2
2022-11-13T12:21:22.977Z,3
2022-11-13T12:22:25.832Z,2
2022-11-13T12:23:22.963Z,2
2022-11-13T12:24:22.961Z,3
2022-11-13T12:25:22.969Z,4
2022-11-13T12:26:22.974Z,2
2022-11-13T12:27:23.007Z,2
2022-11-13T12:28:22.962Z,2
2022-11-13T12:29:22.953Z,3
2022-11-13T12:30:22.974Z,3
2022-11-13T12:31:23.017Z,2
2022-11-13T12:32:22.956Z,2
2022-11-13T12:33:22.954Z,2
2022-11-13T12:34:23.083Z,2
2022-11-13T12:35:23.005Z,3
2022-11-13T12:36:23.000Z,2
2022-11-13T12:37:22.969Z,3
2022-11-13T12:38:22.967Z,3
2022-11-13T12:39:22.966Z,3
2022-11-13T12:40:22.971Z,2
2022-11-13T12:41:23.012Z,3
2022-11-13T12:42:23.030Z,2
2022-11-13T12:43:23.023Z,3
2022-11-13T12:44:22.986Z,2
2022-11-13T12:45:22.974Z,3
2022-11-13T12:46:22.976Z,2
2022-11-13T12:47:23.018Z,2
2022-11-13T12:48:23.033Z,2
2022-11-13T12:49:23.113Z,2
2022-11-13T12:50:25.173Z,2
2022-11-13T12:51:23.045Z,2
2022-11-13T12:52:22.984Z,2
2022-11-13T12:53:23.037Z,2
2022-11-13T12:54:22.970Z,2
2022-11-13T12:55:22.970Z,3
2022-11-13T12:56:22.999Z,2
2022-11-13T12:57:27.141Z,2
2022-11-13T12:58:23.029Z,3
2022-11-13T12:59:31.660Z,4
2022-11-13T13:00:22.984Z,2
2022-11-13T13:01:23.015Z,2
2022-11-13T13:02:22.983Z,3
2022-11-13T13:03:22.970Z,2
2022-11-13T13:04:23.001Z,2
2022-11-13T13:05:23.093Z,2
2022-11-13T13:06:23.050Z,2
2022-11-13T13:07:23.083Z,2
2022-11-13T13:08:22.979Z,2
2022-11-13T13:09:22.972Z,3
2022-11-13T13:10:22.974Z,2
2022-11-13T13:11:22.989Z,1
2022-11-13T13:12:22.998Z,2
2022-11-13T13:13:24.496Z,2
2022-11-13T13:14:23.010Z,3
2022-11-13T13:15:22.973Z,2
2022-11-13T13:16:22.996Z,2
2022-11-13T13:17:22.971Z,3
2022-11-13T13:18:23.015Z,2
2022-11-13T13:19:22.976Z,3
2022-11-13T13:20:22.971Z,2
2022-11-13T13:21:23.060Z,2
2022-11-13T13:22:23.017Z,3
2022-11-13T13:23:22.980Z,2
2022-11-13T13:24:22.969Z,2
2022-11-13T13:25:22.984Z,1
2022-11-13T13:26:22.988Z,3
2022-11-13T13:27:22.967Z,3
2022-11-13T13:28:22.978Z,3
2022-11-13T13:29:23.044Z,4
2022-11-13T13:30:23.018Z,3
2022-11-13T13:31:23.015Z,3
2022-11-13T13:32:22.985Z,2
2022-11-13T13:33:22.996Z,1
2022-11-13T13:34:23.002Z,2
2022-11-13T13:35:22.994Z,2
2022-11-13T13:36:23.131Z,2
2022-11-13T13:37:23.016Z,3
2022-11-13T13:38:23.067Z,2
2022-11-13T13:39:22.971Z,2
2022-11-13T13:40:22.988Z,2
2022-11-13T13:41:23.003Z,3
2022-11-13T13:42:22.993Z,2
2022-11-13T13:43:22.993Z,3
2022-11-13T13:44:22.992Z,3
2022-11-13T13:45:25.506Z,3
2022-11-13T13:46:23.016Z,2
2022-11-13T13:47:23.032Z,2
2022-11-13T13:48:22.981Z,2
2022-11-13T13:49:22.992Z,1
2022-11-13T13:50:22.993Z,1
2022-11-13T13:51:23.007Z,2
2022-11-13T13:52:22.985Z,2
2022-11-13T13:53:23.023Z,1
2022-11-13T13:54:22.992Z,2
2022-11-13T13:55:22.990Z,2
2022-11-13T13:56:23.000Z,2
2022-11-13T13:57:22.997Z,3
2022-11-13T13:58:22.967Z,2
2022-11-13T13:59:23.013Z,2
2022-11-13T14:00:23.009Z,14
2022-11-13T14:01:23.102Z,6
2022-11-13T14:02:23.085Z,4
2022-11-13T14:03:23.005Z,4
2022-11-13T14:04:22.983Z,3
2022-11-13T14:05:22.997Z,5
2022-11-13T14:06:23.021Z,5
2022-11-13T14:07:23.167Z,2
2022-11-13T14:08:23.039Z,2
2022-11-13T14:09:23.047Z,3
2022-11-13T14:10:22.999Z,2
2022-11-13T14:11:22.997Z,3
2022-11-13T14:12:23.003Z,2
2022-11-13T14:13:23.283Z,2
2022-11-13T14:14:23.049Z,2
2022-11-13T14:15:23.004Z,2
2022-11-13T14:16:23.065Z,2
2022-11-13T14:17:23.031Z,2
2022-11-13T14:18:23.023Z,1
2022-11-13T14:19:23.012Z,2
2022-11-13T14:20:23.007Z,2
2022-11-13T14:21:23.013Z,2
2022-11-13T14:22:23.007Z,2
2022-11-13T14:23:22.995Z,2
2022-11-13T14:24:23.053Z,1
2022-11-13T14:25:23.124Z,3
2022-11-13T14:26:23.009Z,2
2022-11-13T14:27:22.999Z,2
2022-11-13T14:28:22.999Z,2
2022-11-13T14:29:22.999Z,3
2022-11-13T14:30:23.008Z,2
2022-11-13T14:31:23.020Z,1
2022-11-13T14:32:23.024Z,2
2022-11-13T14:33:23.010Z,1
2022-11-13T14:34:23.011Z,3
2022-11-13T14:35:23.102Z,2
2022-11-13T14:36:23.047Z,2
2022-11-13T14:37:22.995Z,2
2022-11-13T14:38:23.125Z,2
2022-11-13T14:39:23.056Z,2
2022-11-13T14:40:23.064Z,1
2022-11-13T14:41:23.021Z,2
2022-11-13T14:42:23.004Z,1
2022-11-13T14:43:23.009Z,2
2022-11-13T14:44:24.898Z,3